createdAt,value
2022-09-18T00:00:14.297Z,92.27
2022-09-18T00:01:14.304Z,92.78
2022-09-18T00:02:14.350Z,93.39
2022-09-18T00:03:14.330Z,93.29
2022-09-18T00:04:14.253Z,92.78
2022-09-18T00:05:14.245Z,91.75
2022-09-18T00:06:14.241Z,93.08
2022-09-18T00:07:14.228Z,92.68
2022-09-18T00:08:14.208Z,92.57
2022-09-18T00:09:14.219Z,93.29
2022-09-18T00:10:14.190Z,92.36
2022-09-18T00:11:14.198Z,93.19
2022-09-18T00:12:14.175Z,91.55
2022-09-18T00:13:14.149Z,91.75
2022-09-18T00:14:14.149Z,92.16
2022-09-18T00:15:14.129Z,91.44
2022-09-18T00:16:14.218Z,92.16
2022-09-18T00:17:14.139Z,92.16
2022-09-18T00:18:14.113Z,91.44
2022-09-18T00:19:14.098Z,92.16
2022-09-18T00:20:14.080Z,92.06
2022-09-18T00:21:14.070Z,91.35
2022-09-18T00:22:14.069Z,91.03
2022-09-18T00:23:14.079Z,91.86
2022-09-18T00:24:14.042Z,90.99
2022-09-18T00:25:14.091Z,91.50
2022-09-18T00:26:14.020Z,90.99
2022-09-18T00:27:14.000Z,91.61
2022-09-18T00:28:14.013Z,91.20
2022-09-18T00:29:14.012Z,90.48
2022-09-18T00:30:13.980Z,90.99
2022-09-18T00:31:14.067Z,89.36
2022-09-18T00:32:13.985Z,89.04
2022-09-18T00:33:13.933Z,88.84
2022-09-18T00:34:13.936Z,88.53
2022-09-18T00:35:13.916Z,88.64
2022-09-18T00:36:13.926Z,88.84
2022-09-18T00:37:13.895Z,89.15
2022-09-18T00:38:13.887Z,89.56
2022-09-18T00:39:13.885Z,89.25
2022-09-18T00:40:14.173Z,90.48
2022-09-18T00:41:13.857Z,90.28
2022-09-18T00:42:13.855Z,89.76
2022-09-18T00:43:13.833Z,90.99
2022-09-18T00:44:13.827Z,89.76
2022-09-18T00:45:14.638Z,90.07
2022-09-18T00:46:13.848Z,89.66
2022-09-18T00:47:13.800Z,89.15
2022-09-18T00:48:13.786Z,90.07
2022-09-18T00:49:14.030Z,90.79
2022-09-18T00:50:13.777Z,89.04
2022-09-18T00:51:13.749Z,89.97
2022-09-18T00:52:13.738Z,88.94
2022-09-18T00:53:13.729Z,89.56
2022-09-18T00:54:13.768Z,89.56
2022-09-18T00:55:13.711Z,87.61
2022-09-18T00:56:13.701Z,88.23
2022-09-18T00:57:13.708Z,86.58
2022-09-18T00:58:13.679Z,88.02
2022-09-18T00:59:13.668Z,89.36
2022-09-18T01:00:13.661Z,88.23
2022-09-18T01:01:13.711Z,88.64
2022-09-18T01:02:13.677Z,89.45
2022-09-18T01:03:13.621Z,89.45
2022-09-18T01:04:13.611Z,88.33
2022-09-18T01:05:13.600Z,89.04
2022-09-18T01:06:13.591Z,90.58
2022-09-18T01:07:13.583Z,90.79
2022-09-18T01:08:13.562Z,89.36
2022-09-18T01:09:25.197Z,90.48
2022-09-18T01:10:14.554Z,90.07
2022-09-18T01:11:13.549Z,91.03
2022-09-18T01:12:13.523Z,91.35
2022-09-18T01:13:13.513Z,89.70
2022-09-18T01:14:13.506Z,88.98
2022-09-18T01:15:13.498Z,89.19
2022-09-18T01:16:13.590Z,89.50
2022-09-18T01:17:13.473Z,89.60
2022-09-18T01:18:13.465Z,89.50
2022-09-18T01:19:13.462Z,89.19
2022-09-18T01:20:13.450Z,89.39
2022-09-18T01:21:13.429Z,88.78
2022-09-18T01:22:13.416Z,88.06
2022-09-18T01:23:13.406Z,88.06
2022-09-18T01:24:13.398Z,88.78
2022-09-18T01:25:13.378Z,88.57
2022-09-18T01:26:13.377Z,88.17
2022-09-18T01:27:13.445Z,88.78
2022-09-18T01:28:13.368Z,89.50
2022-09-18T01:29:13.366Z,89.39
2022-09-18T01:30:13.330Z,88.78
2022-09-18T01:31:13.376Z,87.55
2022-09-18T01:32:13.320Z,87.71
2022-09-18T01:33:13.290Z,87.61
2022-09-18T01:34:13.447Z,88.53
2022-09-18T01:35:36.924Z,87.92
2022-09-18T01:36:14.290Z,88.84
2022-09-18T01:37:13.248Z,87.20
2022-09-18T01:38:13.249Z,87.20
2022-09-18T01:39:13.231Z,86.07
2022-09-18T01:40:13.291Z,86.90
2022-09-18T01:41:13.209Z,85.97
2022-09-18T01:42:13.210Z,86.79
2022-09-18T01:43:13.202Z,88.64
2022-09-18T01:44:13.184Z,87.71
2022-09-18T01:45:13.162Z,87.30
2022-09-18T01:46:13.219Z,87.04
2022-09-18T01:47:13.143Z,87.71
2022-09-18T01:48:13.174Z,87.96
2022-09-18T01:49:13.123Z,86.83
2022-09-18T01:50:13.115Z,86.63
2022-09-18T01:51:13.115Z,86.63
2022-09-18T01:52:13.304Z,86.48
2022-09-18T01:53:13.086Z,87.14
2022-09-18T01:54:13.072Z,84.99
2022-09-18T01:55:13.063Z,85.97
2022-09-18T01:56:13.045Z,85.87
2022-09-18T01:57:13.179Z,85.46
2022-09-18T01:58:13.036Z,86.79
2022-09-18T01:59:13.016Z,86.90
2022-09-18T02:00:13.006Z,86.01
2022-09-18T02:01:13.075Z,85.30
2022-09-18T02:02:13.537Z,85.71
2022-09-18T02:03:12.985Z,87.14
2022-09-18T02:04:12.968Z,87.34
2022-09-18T02:05:12.960Z,86.32
2022-09-18T02:06:12.954Z,87.65
2022-09-18T02:07:12.943Z,88.37
2022-09-18T02:08:12.928Z,88.06
2022-09-18T02:09:12.919Z,87.65
2022-09-18T02:10:12.924Z,87.34
2022-09-18T02:11:12.908Z,87.65
2022-09-18T02:12:12.878Z,88.27
2022-09-18T02:13:12.868Z,87.76
2022-09-18T02:14:12.850Z,87.85
2022-09-18T02:15:12.859Z,87.85
2022-09-18T02:16:12.911Z,88.98
2022-09-18T02:17:12.830Z,89.13
2022-09-18T02:18:12.811Z,89.75
2022-09-18T02:19:12.850Z,90.36
2022-09-18T02:20:12.852Z,90.26
2022-09-18T02:21:12.787Z,90.16
2022-09-18T02:22:12.770Z,90.26
2022-09-18T02:23:12.761Z,89.43
2022-09-18T02:24:13.561Z,90.16
2022-09-18T02:25:12.753Z,90.46
2022-09-18T02:26:12.733Z,90.05
2022-09-18T02:27:12.721Z,90.16
2022-09-18T02:28:12.713Z,89.43
2022-09-18T02:29:12.726Z,89.64
2022-09-18T02:30:12.680Z,89.03
2022-09-18T02:31:12.769Z,87.79
2022-09-18T02:32:12.661Z,86.98
2022-09-18T02:33:12.662Z,86.46
2022-09-18T02:34:12.653Z,86.63
2022-09-18T02:35:12.636Z,84.99
2022-09-18T02:36:12.616Z,83.86
2022-09-18T02:37:12.615Z,83.45
2022-09-18T02:38:12.597Z,83.51
2022-09-18T02:39:12.610Z,82.79
2022-09-18T02:40:12.643Z,83.41
2022-09-18T02:41:12.569Z,81.98
2022-09-18T02:42:12.747Z,81.32
2022-09-18T02:43:12.548Z,81.73
2022-09-18T02:44:12.539Z,83.17
2022-09-18T02:45:12.548Z,83.17
2022-09-18T02:46:12.615Z,83.58
2022-09-18T02:47:12.517Z,82.55
2022-09-18T02:48:12.489Z,82.24
2022-09-18T02:49:12.509Z,82.86
2022-09-18T02:50:12.463Z,82.96
2022-09-18T02:51:12.500Z,83.37
2022-09-18T02:52:12.446Z,82.86
2022-09-18T02:53:12.440Z,83.37
2022-09-18T02:54:12.420Z,83.68
2022-09-18T02:55:12.439Z,82.65
2022-09-18T02:56:12.402Z,83.27
2022-09-18T02:57:12.401Z,83.47
2022-09-18T02:58:12.381Z,82.59
2022-09-18T02:59:12.371Z,83.41
2022-09-18T03:00:12.366Z,84.23
2022-09-18T03:01:12.440Z,84.74
2022-09-18T03:02:13.297Z,84.64
2022-09-18T03:03:12.332Z,84.74
2022-09-18T03:04:12.334Z,85.05
2022-09-18T03:05:12.404Z,84.53
2022-09-18T03:06:12.303Z,84.95
2022-09-18T03:07:12.296Z,84.64
2022-09-18T03:08:12.274Z,85.15
2022-09-18T03:09:12.273Z,85.19
2022-09-18T03:10:12.254Z,85.05
2022-09-18T03:11:12.262Z,85.19
2022-09-18T03:12:12.233Z,85.60
2022-09-18T03:13:12.226Z,87.55
2022-09-18T03:14:12.213Z,87.24
2022-09-18T03:15:12.204Z,85.91
2022-09-18T03:16:12.239Z,86.42
2022-09-18T03:17:12.194Z,87.76
2022-09-18T03:18:12.182Z,87.14
2022-09-18T03:19:12.181Z,87.14
2022-09-18T03:20:12.176Z,87.34
2022-09-18T03:21:12.136Z,87.76
2022-09-18T03:22:12.118Z,87.90
2022-09-18T03:23:12.118Z,87.70
2022-09-18T03:24:12.111Z,87.79
2022-09-18T03:25:12.114Z,89.13
2022-09-18T03:26:12.086Z,88.92
2022-09-18T03:27:12.082Z,88.72
2022-09-18T03:28:12.072Z,89.54
2022-09-18T03:29:12.072Z,89.43
2022-09-18T03:30:12.054Z,89.13
2022-09-18T03:31:12.149Z,88.66
2022-09-18T03:32:12.038Z,89.37
2022-09-18T03:33:12.121Z,89.27
2022-09-18T03:34:11.999Z,89.07
2022-09-18T03:35:12.100Z,89.37
2022-09-18T03:36:11.981Z,89.58
2022-09-18T03:37:11.988Z,90.50
2022-09-18T03:38:11.952Z,90.40
2022-09-18T03:39:11.963Z,89.52
2022-09-18T03:40:11.958Z,90.44
2022-09-18T03:41:11.932Z,90.65
2022-09-18T03:42:11.910Z,90.55
2022-09-18T03:43:11.904Z,90.85
2022-09-18T03:44:11.892Z,90.55
2022-09-18T03:45:11.891Z,91.47
2022-09-18T03:46:11.924Z,91.61
2022-09-18T03:47:11.871Z,91.93
2022-09-18T03:48:11.846Z,92.64
2022-09-18T03:49:11.865Z,92.85
2022-09-18T03:50:11.884Z,92.64
2022-09-18T03:51:11.825Z,93.05
2022-09-18T03:52:11.805Z,92.74
2022-09-18T03:53:11.796Z,93.36
2022-09-18T03:54:11.794Z,93.46
2022-09-18T03:55:11.845Z,92.85
2022-09-18T03:56:11.766Z,93.26
2022-09-18T03:57:11.757Z,92.74
2022-09-18T03:58:11.757Z,92.64
2022-09-18T03:59:11.737Z,92.74
2022-09-18T04:00:11.717Z,91.61
2022-09-18T04:01:11.736Z,92.23
2022-09-18T04:02:11.835Z,92.69
2022-09-18T04:03:11.789Z,92.74
2022-09-18T04:04:11.687Z,93.36
2022-09-18T04:05:11.677Z,93.77
2022-09-18T04:06:11.670Z,94.49
2022-09-18T04:07:11.657Z,93.67
2022-09-18T04:08:11.640Z,93.30
2022-09-18T04:09:11.643Z,92.95
2022-09-18T04:10:11.627Z,92.07
2022-09-18T04:11:12.442Z,91.93
2022-09-18T04:12:11.647Z,93.16
2022-09-18T04:13:11.596Z,93.05
2022-09-18T04:14:11.588Z,93.26
2022-09-18T04:15:11.579Z,93.26
2022-09-18T04:16:11.629Z,93.26
2022-09-18T04:17:11.551Z,93.67
2022-09-18T04:18:11.870Z,92.13
2022-09-18T04:19:11.530Z,92.85
2022-09-18T04:20:11.512Z,92.44
2022-09-18T04:21:11.509Z,92.85
2022-09-18T04:22:11.516Z,93.26
2022-09-18T04:23:11.512Z,92.13
2022-09-18T04:24:11.473Z,90.89
2022-09-18T04:25:11.463Z,91.20
2022-09-18T04:26:11.462Z,91.31
2022-09-18T04:27:11.452Z,91.31
2022-09-18T04:28:11.434Z,91.72
2022-09-18T04:29:11.444Z,92.74
2022-09-18T04:30:11.424Z,92.54
2022-09-18T04:31:11.460Z,92.95
2022-09-18T04:32:11.405Z,93.98
2022-09-18T04:33:11.385Z,94.08
2022-09-18T04:34:11.370Z,94.18
2022-09-18T04:35:11.364Z,94.18
2022-09-18T04:36:11.359Z,93.71
2022-09-18T04:37:11.340Z,93.82
2022-09-18T04:38:11.327Z,94.23
2022-09-18T04:39:11.350Z,93.71
2022-09-18T04:40:11.459Z,94.33
2022-09-18T04:41:11.306Z,94.02
2022-09-18T04:42:11.288Z,94.43
2022-09-18T04:43:11.278Z,94.54
2022-09-18T04:44:11.268Z,94.23
2022-09-18T04:45:11.269Z,94.02
2022-09-18T04:46:11.264Z,93.61
2022-09-18T04:47:11.239Z,93.10
2022-09-18T04:48:11.236Z,93.51
2022-09-18T04:49:11.218Z,93.61
2022-09-18T04:50:11.199Z,93.30
2022-09-18T04:51:11.198Z,93.40
2022-09-18T04:52:11.244Z,93.98
2022-09-18T04:53:11.180Z,93.77
2022-09-18T04:54:11.161Z,93.77
2022-09-18T04:55:11.173Z,93.87
2022-09-18T04:56:11.141Z,93.77
2022-09-18T04:57:11.792Z,93.67
2022-09-18T04:58:11.112Z,93.67
2022-09-18T04:59:11.120Z,93.87
2022-09-18T05:00:11.102Z,93.77
2022-09-18T05:01:11.209Z,93.36
2022-09-18T05:02:11.188Z,93.46
2022-09-18T05:03:11.082Z,93.67
2022-09-18T05:04:11.151Z,91.61
2022-09-18T05:05:11.053Z,91.37
2022-09-18T05:06:11.033Z,92.19
2022-09-18T05:07:11.032Z,91.88
2022-09-18T05:08:11.024Z,91.47
2022-09-18T05:09:11.015Z,91.57
2022-09-18T05:10:11.005Z,91.06
2022-09-18T05:11:10.992Z,91.67
2022-09-18T05:12:10.974Z,91.88
2022-09-18T05:13:10.975Z,90.95
2022-09-18T05:14:10.966Z,90.55
2022-09-18T05:15:10.946Z,91.16
2022-09-18T05:16:10.962Z,90.85
2022-09-18T05:17:10.934Z,91.27
2022-09-18T05:18:11.839Z,92.08
2022-09-18T05:19:10.908Z,92.50
2022-09-18T05:20:10.920Z,92.29
2022-09-18T05:21:10.886Z,91.67
2022-09-18T05:22:10.878Z,91.47
2022-09-18T05:23:10.886Z,91.57
2022-09-18T05:24:10.849Z,92.50
2022-09-18T05:25:10.848Z,93.83
2022-09-18T05:26:10.829Z,93.73
2022-09-18T05:27:10.819Z,93.01
2022-09-18T05:28:10.799Z,92.50
2022-09-18T05:29:10.800Z,92.19
2022-09-18T05:30:10.780Z,92.70
2022-09-18T05:31:11.675Z,92.29
2022-09-18T05:32:10.760Z,92.08
2022-09-18T05:33:10.779Z,92.29
2022-09-18T05:34:10.741Z,93.63
2022-09-18T05:35:10.743Z,93.32
2022-09-18T05:36:10.722Z,93.52
2022-09-18T05:37:10.721Z,93.73
2022-09-18T05:38:10.702Z,93.52
2022-09-18T05:39:15.478Z,94.04
2022-09-18T05:40:11.751Z,94.24
2022-09-18T05:41:10.673Z,94.34
2022-09-18T05:42:10.693Z,94.55
2022-09-18T05:43:10.683Z,94.45
2022-09-18T05:44:10.731Z,94.24
2022-09-18T05:45:10.662Z,94.04
2022-09-18T05:46:10.701Z,94.24
2022-09-18T05:47:10.621Z,94.24
2022-09-18T05:48:10.646Z,94.04
2022-09-18T05:49:10.848Z,94.24
2022-09-18T05:50:10.585Z,93.93
2022-09-18T05:51:10.599Z,93.63
2022-09-18T05:52:10.565Z,94.14
2022-09-18T05:53:10.566Z,93.63
2022-09-18T05:54:10.599Z,93.52
2022-09-18T05:55:10.563Z,93.79
2022-09-18T05:56:10.529Z,93.93
2022-09-18T05:57:10.524Z,94.34
2022-09-18T05:58:10.515Z,93.83
2022-09-18T05:59:10.495Z,93.99
2022-09-18T06:00:10.487Z,93.93
2022-09-18T06:01:10.491Z,93.83
2022-09-18T06:02:10.539Z,93.79
2022-09-18T06:03:10.523Z,93.59
2022-09-18T06:04:10.483Z,93.89
2022-09-18T06:05:10.457Z,93.59
2022-09-18T06:06:10.429Z,94.10
2022-09-18T06:07:10.577Z,94.20
2022-09-18T06:08:10.413Z,94.61
2022-09-18T06:09:10.406Z,94.40
2022-09-18T06:10:10.370Z,94.61
2022-09-18T06:11:10.399Z,93.17
2022-09-18T06:12:10.350Z,92.66
2022-09-18T06:13:10.351Z,92.35
2022-09-18T06:14:10.321Z,93.17
2022-09-18T06:15:10.325Z,92.51
2022-09-18T06:16:10.393Z,92.82
2022-09-18T06:17:10.311Z,91.90
2022-09-18T06:18:10.298Z,92.31
2022-09-18T06:19:10.330Z,92.41
2022-09-18T06:20:10.272Z,92.00
2022-09-18T06:21:10.261Z,91.80
2022-09-18T06:22:10.253Z,91.35
2022-09-18T06:23:10.265Z,91.03
2022-09-18T06:24:10.259Z,91.86
2022-09-18T06:25:10.225Z,92.22
2022-09-18T06:26:14.138Z,91.09
2022-09-18T06:27:10.214Z,89.21
2022-09-18T06:28:10.197Z,89.00
2022-09-18T06:29:10.166Z,88.08
2022-09-18T06:30:10.354Z,88.24
2022-09-18T06:31:10.232Z,87.73
2022-09-18T06:32:10.137Z,88.31
2022-09-18T06:33:10.117Z,89.74
2022-09-18T06:34:10.126Z,88.31
2022-09-18T06:35:10.104Z,87.55
2022-09-18T06:36:10.134Z,87.35
2022-09-18T06:37:10.076Z,87.24
2022-09-18T06:38:10.076Z,87.41
2022-09-18T06:39:10.058Z,86.59
2022-09-18T06:40:10.120Z,86.38
2022-09-18T06:41:10.029Z,84.09
2022-09-18T06:42:10.036Z,86.04
2022-09-18T06:43:10.057Z,84.09
2022-09-18T06:44:10.018Z,83.38
2022-09-18T06:45:10.007Z,81.51
2022-09-18T06:46:09.988Z,82.22
2022-09-18T06:47:09.971Z,82.53
2022-09-18T06:48:09.961Z,82.42
2022-09-18T06:49:10.760Z,82.83
2022-09-18T06:50:09.952Z,83.28
2022-09-18T06:51:09.929Z,83.59
2022-09-18T06:52:09.921Z,82.56
2022-09-18T06:53:12.630Z,83.59
2022-09-18T06:54:09.922Z,82.56
2022-09-18T06:55:09.883Z,83.69
2022-09-18T06:56:09.882Z,82.26
2022-09-18T06:57:10.322Z,82.87
2022-09-18T06:58:09.883Z,82.50
2022-09-18T06:59:09.852Z,81.88
2022-09-18T07:00:09.842Z,82.20
2022-09-18T07:01:09.853Z,82.29
2022-09-18T07:02:09.884Z,83.62
2022-09-18T07:03:09.804Z,83.11
2022-09-18T07:04:09.793Z,84.24
2022-09-18T07:05:09.795Z,84.44
2022-09-18T07:06:09.784Z,83.62
2022-09-18T07:07:09.794Z,84.65
2022-09-18T07:08:09.781Z,83.46
2022-09-18T07:09:09.744Z,83.25
2022-09-18T07:10:09.735Z,83.05
2022-09-18T07:11:09.716Z,82.84
2022-09-18T07:12:09.716Z,82.75
2022-09-18T07:13:09.696Z,82.23
2022-09-18T07:14:09.686Z,79.68
2022-09-18T07:15:09.687Z,80.19
2022-09-18T07:16:09.773Z,82.43
2022-09-18T07:17:13.017Z,80.80
2022-09-18T07:18:10.650Z,80.29
2022-09-18T07:19:09.649Z,81.72
2022-09-18T07:20:09.627Z,80.29
2022-09-18T07:21:09.609Z,81.48
2022-09-18T07:22:09.608Z,81.88
2022-09-18T07:23:09.589Z,81.65
2022-09-18T07:24:09.581Z,81.24
2022-09-18T07:25:09.570Z,79.66
2022-09-18T07:26:09.570Z,78.54
2022-09-18T07:27:09.550Z,76.90
2022-09-18T07:28:09.540Z,78.03
2022-09-18T07:29:10.313Z,77.69
2022-09-18T07:30:09.531Z,75.85
2022-09-18T07:31:09.563Z,77.28
2022-09-18T07:32:09.501Z,77.86
2022-09-18T07:33:09.485Z,76.39
2022-09-18T07:34:09.472Z,77.51
2022-09-18T07:35:09.463Z,77.98
2022-09-18T07:36:09.472Z,78.30
2022-09-18T07:37:09.443Z,77.58
2022-09-18T07:38:09.452Z,76.83
2022-09-18T07:39:09.424Z,74.49
2022-09-18T07:40:09.541Z,74.08
2022-09-18T07:41:09.397Z,73.77
2022-09-18T07:42:09.393Z,74.86
2022-09-18T07:43:09.687Z,74.35
2022-09-18T07:44:09.374Z,73.13
2022-09-18T07:45:09.365Z,75.16
2022-09-18T07:46:09.388Z,72.92
2022-09-18T07:47:09.337Z,73.94
2022-09-18T07:48:09.369Z,73.30
2022-09-18T07:49:09.324Z,74.11
2022-09-18T07:50:09.315Z,72.78
2022-09-18T07:51:09.298Z,72.45
2022-09-18T07:52:09.287Z,71.02
2022-09-18T07:53:09.293Z,71.73
2022-09-18T07:54:09.268Z,70.10
2022-09-18T07:55:09.250Z,70.72
2022-09-18T07:56:09.251Z,68.79
2022-09-18T07:57:09.236Z,68.18
2022-09-18T07:58:09.220Z,67.66
2022-09-18T07:59:09.311Z,69.49
2022-09-18T08:00:09.212Z,71.02
2022-09-18T08:01:09.501Z,71.94
2022-09-18T08:02:09.303Z,72.86
2022-09-18T08:03:09.274Z,72.01
2022-09-18T08:04:09.161Z,69.06
2022-09-18T08:05:09.369Z,69.36
2022-09-18T08:06:09.140Z,69.87
2022-09-18T08:07:09.123Z,69.36
2022-09-18T08:08:09.146Z,70.48
2022-09-18T08:09:09.165Z,69.26
2022-09-18T08:10:09.103Z,68.24
2022-09-18T08:11:09.084Z,69.13
2022-09-18T08:12:09.073Z,69.02
2022-09-18T08:13:09.071Z,67.19
2022-09-18T08:14:09.063Z,64.86
2022-09-18T08:15:09.043Z,64.96
2022-09-18T08:16:09.102Z,67.60
2022-09-18T08:17:09.023Z,68.59
2022-09-18T08:18:09.017Z,66.86
2022-09-18T08:19:08.998Z,65.44
2022-09-18T08:20:09.004Z,64.45
2022-09-18T08:21:10.833Z,66.69
2022-09-18T08:22:08.996Z,66.69
2022-09-18T08:23:08.966Z,66.35
2022-09-18T08:24:08.960Z,66.93
2022-09-18T08:25:08.938Z,65.71
2022-09-18T08:26:08.937Z,63.55
2022-09-18T08:27:08.919Z,61.29
2022-09-18T08:28:08.909Z,61.90
2022-09-18T08:29:08.918Z,63.82
2022-09-18T08:30:08.900Z,64.20
2022-09-18T08:31:09.008Z,63.79
2022-09-18T08:32:10.185Z,59.94
2022-09-18T08:33:08.963Z,61.46
2022-09-18T08:34:08.840Z,57.93
2022-09-18T08:35:08.832Z,61.52
2022-09-18T08:36:08.820Z,60.30
2022-09-18T08:37:08.991Z,61.72
2022-09-18T08:38:08.883Z,61.72
2022-09-18T08:39:08.792Z,64.06
2022-09-18T08:40:08.845Z,60.98
2022-09-18T08:41:08.781Z,60.68
2022-09-18T08:42:08.763Z,59.77
2022-09-18T08:43:08.787Z,59.26
2022-09-18T08:44:08.753Z,61.82
2022-09-18T08:45:08.733Z,63.32
2022-09-18T08:46:08.816Z,62.91
2022-09-18T08:47:08.702Z,59.66
2022-09-18T08:48:08.743Z,60.24
2022-09-18T08:49:08.675Z,59.56
2022-09-18T08:50:08.691Z,60.78
2022-09-18T08:51:08.656Z,60.37
2022-09-18T08:52:08.645Z,62.20
2022-09-18T08:53:08.747Z,60.75
2022-09-18T08:54:08.636Z,60.35
2022-09-18T08:55:08.617Z,61.16
2022-09-18T08:56:08.618Z,59.23
2022-09-18T08:57:11.160Z,58.31
2022-09-18T08:58:09.768Z,59.43
2022-09-18T08:59:08.600Z,58.22
2022-09-18T09:00:08.568Z,59.03
2022-09-18T09:01:08.631Z,61.05
2022-09-18T09:02:08.638Z,59.91
2022-09-18T09:03:08.590Z,60.93
2022-09-18T09:04:08.650Z,62.31
2022-09-18T09:05:08.530Z,59.78
2022-09-18T09:06:08.512Z,59.03
2022-09-18T09:07:08.500Z,60.35
2022-09-18T09:08:08.489Z,61.76
2022-09-18T09:09:13.437Z,63.29
2022-09-18T09:10:10.221Z,62.10
2022-09-18T09:11:08.470Z,62.81
2022-09-18T09:12:08.470Z,63.21
2022-09-18T09:13:08.465Z,64.10
2022-09-18T09:14:08.424Z,62.48
2022-09-18T09:15:08.415Z,62.45
2022-09-18T09:16:08.496Z,64.14
2022-09-18T09:17:08.397Z,60.69
2022-09-18T09:18:08.393Z,59.27
2022-09-18T09:19:08.364Z,59.27
2022-09-18T09:20:08.373Z,57.37
2022-09-18T09:21:11.714Z,59.00
2022-09-18T09:22:08.345Z,58.59
2022-09-18T09:23:08.326Z,61.00
2022-09-18T09:24:08.336Z,61.68
2022-09-18T09:25:08.299Z,61.85
2022-09-18T09:26:08.303Z,62.73
2022-09-18T09:27:08.280Z,57.50
2022-09-18T09:28:08.388Z,59.32
2022-09-18T09:29:08.268Z,59.72
2022-09-18T09:30:08.259Z,59.01
2022-09-18T09:31:08.305Z,61.21
2022-09-18T09:32:08.344Z,57.67
2022-09-18T09:33:08.269Z,58.00
2022-09-18T09:34:08.230Z,61.72
2022-09-18T09:35:08.200Z,58.99
2022-09-18T09:36:08.206Z,59.47
2022-09-18T09:37:08.231Z,59.36
2022-09-18T09:38:08.235Z,59.74
2022-09-18T09:39:08.172Z,59.61
2022-09-18T09:40:08.241Z,58.20
2022-09-18T09:41:08.139Z,57.49
2022-09-18T09:42:08.221Z,56.40
2022-09-18T09:43:08.126Z,57.01
2022-09-18T09:44:08.124Z,56.63
2022-09-18T09:45:08.094Z,57.95
2022-09-18T09:46:08.091Z,55.11
2022-09-18T09:47:08.128Z,58.25
2022-09-18T09:48:08.064Z,57.65
2022-09-18T09:49:08.053Z,58.53
2022-09-18T09:50:08.065Z,56.40
2022-09-18T09:51:08.068Z,59.44
2022-09-18T09:52:09.258Z,57.75
2022-09-18T09:53:08.091Z,58.07
2022-09-18T09:54:08.006Z,59.05
2022-09-18T09:55:07.991Z,59.05
2022-09-18T09:56:07.986Z,61.47
2022-09-18T09:57:07.978Z,59.83
2022-09-18T09:58:07.965Z,59.32
2022-09-18T09:59:08.766Z,56.31
2022-09-18T10:00:07.978Z,61.47
2022-09-18T10:01:08.032Z,60.16
2022-09-18T10:02:07.995Z,58.84
2022-09-18T10:03:08.709Z,61.30
2022-09-18T10:04:07.910Z,58.87
2022-09-18T10:05:07.885Z,61.47
2022-09-18T10:06:07.901Z,59.75
2022-09-18T10:07:07.869Z,60.06
2022-09-18T10:08:07.861Z,62.46
2022-09-18T10:09:07.863Z,58.69
2022-09-18T10:10:07.833Z,58.99
2022-09-18T10:11:07.825Z,56.66
2022-09-18T10:12:07.821Z,59.22
2022-09-18T10:13:07.794Z,57.09
2022-09-18T10:14:07.941Z,57.80
2022-09-18T10:15:07.789Z,58.81
2022-09-18T10:16:07.819Z,62.35
2022-09-18T10:17:07.762Z,59.70
2022-09-18T10:18:07.765Z,60.20
2022-09-18T10:19:07.752Z,59.09
2022-09-18T10:20:07.745Z,57.95
2022-09-18T10:21:07.726Z,58.56
2022-09-18T10:22:07.714Z,58.96
2022-09-18T10:23:07.699Z,58.69
2022-09-18T10:24:07.685Z,59.67
2022-09-18T10:25:07.729Z,56.73
2022-09-18T10:26:07.675Z,56.43
2022-09-18T10:27:07.648Z,57.37
2022-09-18T10:28:07.798Z,61.08
2022-09-18T10:29:07.630Z,61.05
2022-09-18T10:30:07.628Z,58.40
2022-09-18T10:31:07.704Z,56.10
2022-09-18T10:32:07.649Z,56.91
2022-09-18T10:33:07.588Z,54.71
2022-09-18T10:34:07.580Z,58.86
2022-09-18T10:35:07.568Z,59.54
2022-09-18T10:36:07.562Z,58.36
2022-09-18T10:37:07.541Z,57.65
2022-09-18T10:38:07.563Z,61.19
2022-09-18T10:39:07.526Z,59.47
2022-09-18T10:40:07.567Z,59.49
2022-09-18T10:41:07.500Z,57.34
2022-09-18T10:42:07.493Z,58.96
2022-09-18T10:43:07.483Z,61.69
2022-09-18T10:44:07.475Z,62.19
2022-09-18T10:45:07.462Z,57.21
2022-09-18T10:46:07.456Z,58.70
2022-09-18T10:47:07.446Z,58.67
2022-09-18T10:48:07.452Z,54.33
2022-09-18T10:49:07.416Z,56.52
2022-09-18T10:50:07.418Z,54.38
2022-09-18T10:51:07.396Z,54.81
2022-09-18T10:52:07.418Z,57.10
2022-09-18T10:53:07.478Z,55.66
2022-09-18T10:54:07.375Z,54.96
2022-09-18T10:55:07.368Z,52.14
2022-09-18T10:56:07.339Z,51.56
2022-09-18T10:57:07.400Z,53.47
2022-09-18T10:58:07.311Z,54.48
2022-09-18T10:59:07.310Z,54.08
2022-09-18T11:00:07.301Z,53.85
2022-09-18T11:01:07.375Z,52.87
2022-09-18T11:02:07.402Z,54.41
2022-09-18T11:03:07.262Z,55.24
2022-09-18T11:04:07.242Z,55.44
2022-09-18T11:05:07.364Z,57.43
2022-09-18T11:06:07.312Z,53.88
2022-09-18T11:07:07.242Z,54.48
2022-09-18T11:08:07.221Z,54.96
2022-09-18T11:09:07.227Z,52.79
2022-09-18T11:10:07.535Z,55.82
2022-09-18T11:11:07.186Z,55.79
2022-09-18T11:12:07.184Z,55.87
2022-09-18T11:13:07.162Z,54.23
2022-09-18T11:14:07.149Z,53.72
2022-09-18T11:15:07.144Z,51.13
2022-09-18T11:16:07.196Z,52.24
2022-09-18T11:17:07.112Z,52.84
2022-09-18T11:18:07.114Z,52.54
2022-09-18T11:19:07.612Z,51.98
2022-09-18T11:20:07.077Z,53.88
2022-09-18T11:21:07.078Z,53.05
2022-09-18T11:22:07.058Z,52.72
2022-09-18T11:23:07.066Z,52.34
2022-09-18T11:24:07.046Z,50.70
2022-09-18T11:25:07.029Z,51.10
2022-09-18T11:26:07.628Z,50.73
2022-09-18T11:27:07.010Z,52.74
2022-09-18T11:28:06.997Z,51.31
2022-09-18T11:29:07.018Z,54.71
2022-09-18T11:30:06.970Z,52.29
2022-09-18T11:31:07.019Z,52.01
2022-09-18T11:32:06.960Z,54.33
2022-09-18T11:33:06.949Z,53.02
2022-09-18T11:34:06.922Z,51.99
2022-09-18T11:35:06.922Z,51.51
2022-09-18T11:36:06.913Z,51.20
2022-09-18T11:37:06.965Z,54.23
2022-09-18T11:38:06.884Z,52.19
2022-09-18T11:39:06.884Z,51.38
2022-09-18T11:40:06.923Z,53.60
2022-09-18T11:41:06.865Z,53.58
2022-09-18T11:42:07.656Z,50.53
2022-09-18T11:43:06.837Z,51.11
2022-09-18T11:44:06.817Z,49.90
2022-09-18T11:45:06.936Z,51.81
2022-09-18T11:46:06.796Z,47.51
2022-09-18T11:47:06.868Z,49.07
2022-09-18T11:48:06.819Z,51.16
2022-09-18T11:49:06.783Z,50.85
2022-09-18T11:50:06.769Z,49.04
2022-09-18T11:51:06.758Z,48.44
2022-09-18T11:52:06.745Z,50.43
2022-09-18T11:53:06.759Z,48.39
2022-09-18T11:54:06.720Z,51.39
2022-09-18T11:55:06.710Z,50.13
2022-09-18T11:56:06.699Z,47.52
2022-09-18T11:57:06.702Z,47.64
2022-09-18T11:58:06.691Z,52.82
2022-09-18T11:59:06.679Z,49.70
2022-09-18T12:00:07.013Z,48.52
2022-09-18T12:01:07.419Z,49.65
2022-09-18T12:02:06.762Z,53.75
2022-09-18T12:03:06.680Z,54.13
2022-09-18T12:04:06.624Z,51.21
2022-09-18T12:05:06.611Z,51.81
2022-09-18T12:06:06.594Z,51.41
2022-09-18T12:07:06.622Z,51.41
2022-09-18T12:08:05.227Z,50.20
2022-09-18T12:09:05.406Z,47.81
2022-09-18T12:10:06.009Z,47.43
2022-09-18T12:11:05.187Z,50.35
2022-09-18T12:12:05.168Z,48.52
2022-09-18T12:13:05.167Z,49.30
2022-09-18T12:14:05.168Z,48.35
2022-09-18T12:15:05.147Z,45.87
2022-09-18T12:16:05.162Z,46.58
2022-09-18T12:17:05.123Z,46.46
2022-09-18T12:18:05.105Z,47.64
2022-09-18T12:19:05.094Z,45.41
2022-09-18T12:20:05.255Z,45.71
2022-09-18T12:21:05.073Z,46.01
2022-09-18T12:22:05.053Z,49.22
2022-09-18T12:23:05.052Z,50.81
2022-09-18T12:24:05.422Z,46.01
2022-09-18T12:25:05.036Z,45.31
2022-09-18T12:26:05.020Z,48.14
2022-09-18T12:27:05.011Z,46.76
2022-09-18T12:28:05.241Z,47.59
2022-09-18T12:29:04.988Z,51.09
2022-09-18T12:30:04.967Z,48.77
2022-09-18T12:31:05.043Z,47.74
2022-09-18T12:32:04.976Z,49.25
2022-09-18T12:33:04.938Z,47.22
2022-09-18T12:34:04.928Z,48.12
2022-09-18T12:35:04.917Z,47.94
2022-09-18T12:36:04.897Z,47.66
2022-09-18T12:37:04.906Z,47.26
2022-09-18T12:38:04.886Z,46.80
2022-09-18T12:39:05.591Z,49.40
2022-09-18T12:40:05.656Z,49.57
2022-09-18T12:41:05.518Z,47.11
2022-09-18T12:42:06.307Z,48.72
2022-09-18T12:43:05.497Z,49.02
2022-09-18T12:44:05.488Z,47.83
2022-09-18T12:45:05.487Z,49.73
2022-09-18T12:46:05.512Z,48.94
2022-09-18T12:47:05.464Z,49.75
2022-09-18T12:48:05.434Z,48.76
2022-09-18T12:49:05.434Z,49.39
2022-09-18T12:50:05.442Z,50.07
2022-09-18T12:51:05.653Z,51.99
2022-09-18T12:52:05.383Z,49.67